Time;durP1;ratioP1;P1;durP2;ratioP2;P2;SDS_P1;SDS_P2;PMS_P1;PMS_P2;Temp;Humidity;BMP_temperature;BMP_pressure;BME280_temperature;BME280_humidity;BME280_pressure;Samples;Min_cycle;Max_cycle;Signal;HPM_P1;HPM_P2
2024/01/07 00:00:00;;;;;;;3.30;3.00;;;;;;;;;;4917562;29;20549;-69
2024/01/07 00:02:26;;;;;;;3.70;3.22;;;;;;;;;;4918029;29;20024;-69
2024/01/07 00:04:52;;;;;;;3.67;3.33;;;;;;;;;;4916358;29;20115;-69
2024/01/07 00:07:17;;;;;;;4.55;3.50;;;;;;;;;;4916671;29;20035;-70
2024/01/07 00:09:43;;;;;;;4.30;3.40;;;;;;;;;;4917009;29;20036;-69
2024/01/07 00:12:08;;;;;;;4.13;3.20;;;;;;;;;;4917121;29;20032;-70
2024/01/07 00:14:34;;;;;;;4.50;3.30;;;;;;;;;;4916681;29;20050;-70
2024/01/07 00:16:59;;;;;;;5.93;3.35;;;;;;;;;;4917828;29;20032;-70
2024/01/07 00:19:25;;;;;;;4.63;3.75;;;;;;;;;;4918516;29;20433;-70
2024/01/07 00:21:51;;;;;;;4.03;3.50;;;;;;;;;;4917848;29;20099;-70
2024/01/07 00:24:16;;;;;;;5.13;3.78;;;;;;;;;;4917562;29;20024;-70
2024/01/07 00:26:42;;;;;;;4.72;3.72;;;;;;;;;;4918878;29;20043;-69
2024/01/07 00:29:07;;;;;;;4.38;3.85;;;;;;;;;;4918944;29;20231;-69
2024/01/07 00:31:33;;;;;;;4.45;3.47;;;;;;;;;;4918789;29;20020;-70
2024/01/07 00:33:59;;;;;;;3.40;2.92;;;;;;;;;;4919090;29;20024;-70
2024/01/07 00:36:24;;;;;;;4.20;3.30;;;;;;;;;;4918761;29;20103;-70
2024/01/07 00:38:50;;;;;;;4.85;3.20;;;;;;;;;;4918753;29;20036;-70
2024/01/07 00:41:15;;;;;;;3.50;3.20;;;;;;;;;;4918759;29;20068;-69
2024/01/07 00:43:41;;;;;;;3.97;3.35;;;;;;;;;;4918655;29;20156;-70
2024/01/07 00:46:07;;;;;;;4.10;3.47;;;;;;;;;;4918482;29;20031;-70
2024/01/07 00:48:32;;;;;;;4.00;3.38;;;;;;;;;;4918834;29;20032;-69
2024/01/07 00:50:58;;;;;;;4.80;3.35;;;;;;;;;;4918460;29;20087;-70
2024/01/07 00:53:23;;;;;;;4.28;3.60;;;;;;;;;;4918523;29;20032;-70
2024/01/07 00:55:49;;;;;;;4.43;3.50;;;;;;;;;;4918751;29;20063;-70
2024/01/07 00:58:14;;;;;;;3.92;3.53;;;;;;;;;;4918335;29;20545;-69
2024/01/07 01:00:40;;;;;;;4.25;3.40;;;;;;;;;;4918294;29;20036;-69
2024/01/07 01:03:06;;;;;;;6.05;3.35;;;;;;;;;;4918221;29;20036;-70
2024/01/07 01:05:31;;;;;;;4.97;3.75;;;;;;;;;;4918396;29;20032;-69
2024/01/07 01:07:57;;;;;;;4.05;3.20;;;;;;;;;;4918308;29;20024;-70
2024/01/07 01:10:23;;;;;;;3.60;3.30;;;;;;;;;;4900045;29;20028;-70
2024/01/07 01:12:48;;;;;;;4.88;3.22;;;;;;;;;;4897223;29;20098;-70
2024/01/07 01:15:16;;;;;;;4.00;3.50;;;;;;;;;;4915567;29;20149;-69
2024/01/07 01:17:42;;;;;;;4.10;3.40;;;;;;;;;;4915657;29;20377;-70
2024/01/07 01:20:08;;;;;;;3.83;3.42;;;;;;;;;;4915645;29;20650;-70
2024/01/07 01:22:34;;;;;;;4.30;3.50;;;;;;;;;;4913152;29;20192;-69
2024/01/07 01:24:59;;;;;;;4.00;3.58;;;;;;;;;;4915545;29;20107;-70
2024/01/07 01:27:25;;;;;;;4.20;3.72;;;;;;;;;;4915434;29;20500;-69
2024/01/07 01:29:51;;;;;;;4.20;3.58;;;;;;;;;;4914084;29;20171;-69
2024/01/07 01:32:17;;;;;;;4.03;3.20;;;;;;;;;;4912870;29;20048;-69
2024/01/07 01:34:42;;;;;;;4.32;3.45;;;;;;;;;;4916563;29;20448;-70
2024/01/07 01:37:11;;;;;;;3.70;3.15;;;;;;;;;;4914063;29;20032;-69
2024/01/07 01:39:40;;;;;;;5.45;3.55;;;;;;;;;;4915542;29;20020;-70
2024/01/07 01:42:06;;;;;;;4.30;3.58;;;;;;;;;;4914032;29;20048;-69
2024/01/07 01:44:31;;;;;;;4.63;3.63;;;;;;;;;;4914137;29;20106;-69
2024/01/07 01:46:57;;;;;;;3.83;3.42;;;;;;;;;;4916340;29;20032;-70
2024/01/07 01:49:24;;;;;;;3.80;3.30;;;;;;;;;;4915842;29;20103;-69
2024/01/07 01:51:50;;;;;;;4.22;3.55;;;;;;;;;;4916279;29;20024;-69
2024/01/07 01:54:16;;;;;;;4.35;3.33;;;;;;;;;;4916259;29;20111;-69
2024/01/07 01:56:42;;;;;;;4.35;3.47;;;;;;;;;;4915956;29;20088;-69
2024/01/07 01:59:08;;;;;;;4.20;3.80;;;;;;;;;;4917244;29;20035;-69
2024/01/07 02:01:34;;;;;;;5.13;3.90;;;;;;;;;;4917490;29;20426;-69
2024/01/07 02:03:59;;;;;;;3.97;3.50;;;;;;;;;;4917152;29;20020;-69
2024/01/07 02:06:25;;;;;;;4.95;3.33;;;;;;;;;;4917379;29;20397;-69
2024/01/07 02:08:51;;;;;;;4.10;3.70;;;;;;;;;;4917040;29;20024;-70
2024/01/07 02:11:18;;;;;;;4.28;3.40;;;;;;;;;;4917123;29;20079;-69
2024/01/07 02:13:44;;;;;;;4.70;3.63;;;;;;;;;;4917060;29;20076;-69
2024/01/07 02:16:10;;;;;;;5.47;3.90;;;;;;;;;;4916886;29;20040;-69
2024/01/07 02:18:37;;;;;;;4.50;3.63;;;;;;;;;;4916465;29;20024;-70
2024/01/07 02:21:03;;;;;;;5.38;3.88;;;;;;;;;;4916733;29;20059;-70
2024/01/07 02:23:29;;;;;;;4.15;3.22;;;;;;;;;;4899998;29;20060;-70
2024/01/07 02:25:55;;;;;;;4.78;3.88;;;;;;;;;;4916693;29;20075;-70
2024/01/07 02:28:20;;;;;;;4.07;3.38;;;;;;;;;;4916819;29;20119;-70
2024/01/07 02:30:46;;;;;;;4.47;3.33;;;;;;;;;;4916787;29;20031;-70
2024/01/07 02:33:11;;;;;;;5.32;3.70;;;;;;;;;;4916765;29;20032;-69
2024/01/07 02:35:37;;;;;;;4.30;3.50;;;;;;;;;;4916611;29;20032;-69
2024/01/07 02:38:02;;;;;;;4.25;3.80;;;;;;;;;;4899680;29;20032;-70
2024/01/07 02:40:28;;;;;;;4.18;3.50;;;;;;;;;;4916550;29;20095;-70
2024/01/07 02:42:55;;;;;;;4.43;3.70;;;;;;;;;;4916552;29;20032;-70
2024/01/07 02:45:21;;;;;;;4.90;3.65;;;;;;;;;;4916759;29;20171;-69
2024/01/07 02:47:46;;;;;;;4.28;3.72;;;;;;;;;;4916560;29;20107;-69
2024/01/07 02:50:12;;;;;;;3.83;3.42;;;;;;;;;;4916522;29;20355;-70
2024/01/07 02:52:38;;;;;;;4.32;3.83;;;;;;;;;;4916716;29;20051;-70
2024/01/07 02:55:04;;;;;;;5.47;4.05;;;;;;;;;;4916445;29;20362;-70
2024/01/07 02:57:29;;;;;;;4.45;3.70;;;;;;;;;;4916415;29;20084;-69
2024/01/07 02:59:55;;;;;;;3.85;3.45;;;;;;;;;;4916681;29;20113;-70
2024/01/07 03:02:21;;;;;;;3.83;3.42;;;;;;;;;;4916685;29;20489;-69
2024/01/07 03:04:46;;;;;;;5.15;3.95;;;;;;;;;;4899398;29;20091;-69
2024/01/07 03:07:12;;;;;;;4.10;3.60;;;;;;;;;;4916186;29;20032;-69
2024/01/07 03:09:37;;;;;;;4.25;3.63;;;;;;;;;;4916203;29;20032;-69
2024/01/07 03:12:03;;;;;;;4.43;3.30;;;;;;;;;;4916300;29;20047;-69
2024/01/07 03:14:29;;;;;;;4.05;3.65;;;;;;;;;;4916225;29;20397;-69
2024/01/07 03:16:54;;;;;;;3.90;3.50;;;;;;;;;;4916297;29;20059;-69
2024/01/07 03:19:21;;;;;;;4.22;3.75;;;;;;;;;;4899373;29;20107;-69
2024/01/07 03:21:48;;;;;;;4.32;3.80;;;;;;;;;;4915923;29;20048;-69
2024/01/07 03:24:13;;;;;;;4.00;3.55;;;;;;;;;;4916220;29;20072;-70
2024/01/07 03:26:39;;;;;;;4.55;3.70;;;;;;;;;;4916058;29;20123;-69
2024/01/07 03:29:05;;;;;;;3.95;3.33;;;;;;;;;;4916163;29;20035;-68
2024/01/07 03:31:30;;;;;;;5.93;3.85;;;;;;;;;;4918770;29;20024;-69
2024/01/07 03:33:56;;;;;;;4.55;3.60;;;;;;;;;;4920167;29;20043;-68
2024/01/07 03:36:22;;;;;;;4.68;3.80;;;;;;;;;;4919843;29;20477;-69
2024/01/07 03:38:48;;;;;;;3.95;3.47;;;;;;;;;;4919779;29;20039;-69
2024/01/07 03:41:20;;;;;;;4.35;3.80;;;;;;;;;;4919749;29;20032;-69
2024/01/07 03:43:46;;;;;;;4.47;3.60;;;;;;;;;;4919952;29;20054;-69
2024/01/07 03:46:12;;;;;;;4.13;3.47;;;;;;;;;;4919798;29;20092;-69
2024/01/07 03:48:38;;;;;;;4.75;3.97;;;;;;;;;;4919596;29;20039;-68
2024/01/07 03:51:03;;;;;;;4.63;3.78;;;;;;;;;;4919528;29;20032;-69
2024/01/07 03:53:29;;;;;;;4.82;3.63;;;;;;;;;;4919493;29;20064;-68
2024/01/07 03:55:54;;;;;;;3.97;3.58;;;;;;;;;;4919747;29;20035;-68
2024/01/07 03:58:20;;;;;;;5.50;3.80;;;;;;;;;;4919467;29;20040;-69
2024/01/07 04:00:46;;;;;;;4.63;3.60;;;;;;;;;;4919371;29;20024;-69
2024/01/07 04:03:12;;;;;;;4.82;3.65;;;;;;;;;;4919247;29;20032;-69
2024/01/07 04:05:37;;;;;;;3.60;3.30;;;;;;;;;;4919218;29;20060;-69
2024/01/07 04:08:04;;;;;;;4.10;3.50;;;;;;;;;;4902627;29;20032;-68
2024/01/07 04:10:29;;;;;;;4.88;3.85;;;;;;;;;;4919158;29;20032;-69
2024/01/07 04:12:55;;;;;;;4.55;3.53;;;;;;;;;;4919203;29;20024;-69
2024/01/07 04:15:21;;;;;;;4.72;3.80;;;;;;;;;;4919008;29;20039;-69
2024/01/07 04:17:47;;;;;;;4.07;3.50;;;;;;;;;;4919151;29;20024;-69
2024/01/07 04:20:14;;;;;;;5.13;3.63;;;;;;;;;;4919119;29;20031;-69
2024/01/07 04:22:39;;;;;;;4.03;3.38;;;;;;;;;;4918786;29;20056;-69
2024/01/07 04:25:08;;;;;;;5.32;3.88;;;;;;;;;;4919040;29;20043;-69
2024/01/07 04:27:37;;;;;;;3.97;3.40;;;;;;;;;;4901931;29;20485;-69
2024/01/07 04:30:05;;;;;;;4.15;3.50;;;;;;;;;;4918878;29;20024;-70
2024/01/07 04:32:30;;;;;;;4.53;3.72;;;;;;;;;;4918794;29;20092;-70
2024/01/07 04:34:57;;;;;;;4.13;3.67;;;;;;;;;;4918830;29;20028;-70
2024/01/07 04:37:23;;;;;;;4.45;3.70;;;;;;;;;;4918746;29;20028;-69
2024/01/07 04:39:49;;;;;;;5.00;3.83;;;;;;;;;;4918770;29;20035;-70
2024/01/07 04:42:15;;;;;;;3.85;3.45;;;;;;;;;;4918103;29;20028;-70
2024/01/07 04:44:41;;;;;;;3.80;3.40;;;;;;;;;;4918947;29;20070;-70
2024/01/07 04:47:35;;;;;;;4.05;3.40;;;;;;;;;;4918506;29;20064;-70
2024/01/07 04:50:03;;;;;;;8.10;3.97;;;;;;;;;;4918865;29;20084;-70
2024/01/07 04:52:28;;;;;;;4.68;3.58;;;;;;;;;;4918473;29;20047;-70
2024/01/07 04:54:55;;;;;;;4.07;3.67;;;;;;;;;;4918515;29;20028;-70
2024/01/07 04:57:21;;;;;;;3.97;3.38;;;;;;;;;;4918481;29;20032;-70
2024/01/07 04:59:48;;;;;;;4.95;3.40;;;;;;;;;;4918370;29;20035;-70
2024/01/07 05:02:14;;;;;;;5.10;3.67;;;;;;;;;;4918300;29;20038;-70
2024/01/07 05:04:39;;;;;;;4.20;3.53;;;;;;;;;;4918248;29;20114;-70
2024/01/07 05:07:05;;;;;;;3.85;3.45;;;;;;;;;;4918119;29;20032;-69
2024/01/07 05:09:32;;;;;;;4.53;3.72;;;;;;;;;;4918448;29;20032;-70
2024/01/07 05:11:58;;;;;;;5.13;4.07;;;;;;;;;;4918129;29;20020;-69
2024/01/07 05:14:23;;;;;;;4.25;3.58;;;;;;;;;;4918212;29;20383;-70
2024/01/07 05:16:49;;;;;;;4.28;3.70;;;;;;;;;;4918078;29;20043;-70
2024/01/07 05:19:14;;;;;;;4.50;3.63;;;;;;;;;;4918072;29;20052;-69
2024/01/07 05:21:40;;;;;;;4.55;3.60;;;;;;;;;;4917818;29;20052;-70
2024/01/07 05:24:06;;;;;;;3.95;3.40;;;;;;;;;;4917994;29;20030;-70
2024/01/07 05:26:38;;;;;;;4.07;3.53;;;;;;;;;;4918072;29;20040;-70
2024/01/07 05:29:03;;;;;;;4.38;3.50;;;;;;;;;;4917903;29;20033;-70
2024/01/07 05:31:29;;;;;;;4.03;3.58;;;;;;;;;;4918012;29;20035;-70
2024/01/07 05:33:54;;;;;;;5.38;3.58;;;;;;;;;;4917716;29;20024;-70
2024/01/07 05:36:21;;;;;;;3.78;3.17;;;;;;;;;;4917672;29;20024;-70
2024/01/07 05:38:47;;;;;;;3.63;3.33;;;;;;;;;;4917585;29;20481;-70
2024/01/07 05:41:12;;;;;;;4.22;3.72;;;;;;;;;;4917838;29;20028;-70
2024/01/07 05:43:38;;;;;;;3.97;3.45;;;;;;;;;;4917565;29;20032;-70
2024/01/07 05:46:04;;;;;;;4.28;3.58;;;;;;;;;;4917405;29;20032;-69
2024/01/07 05:48:29;;;;;;;4.55;3.88;;;;;;;;;;4917800;29;20115;-69
2024/01/07 05:50:55;;;;;;;3.58;3.25;;;;;;;;;;4917491;29;20382;-69
2024/01/07 05:53:20;;;;;;;4.25;3.38;;;;;;;;;;4916631;29;20039;-68
2024/01/07 05:55:46;;;;;;;3.58;3.15;;;;;;;;;;4900541;29;20036;-69
2024/01/07 05:58:11;;;;;;;4.30;3.55;;;;;;;;;;4917334;29;20381;-69
2024/01/07 06:00:38;;;;;;;3.85;3.42;;;;;;;;;;4917259;29;20031;-71
2024/01/07 06:03:04;;;;;;;4.22;3.50;;;;;;;;;;4917292;29;20036;-69
2024/01/07 06:05:30;;;;;;;4.13;3.55;;;;;;;;;;4917052;29;20024;-69
2024/01/07 06:07:55;;;;;;;3.80;3.40;;;;;;;;;;4917387;29;20024;-69
2024/01/07 06:10:21;;;;;;;4.13;3.38;;;;;;;;;;4917108;29;20359;-70
2024/01/07 06:12:46;;;;;;;4.35;3.50;;;;;;;;;;4917111;29;20024;-69
2024/01/07 06:15:12;;;;;;;5.70;3.70;;;;;;;;;;4917102;29;20032;-69
2024/01/07 06:17:37;;;;;;;4.07;3.40;;;;;;;;;;4916981;29;20036;-70
2024/01/07 06:20:04;;;;;;;4.50;3.90;;;;;;;;;;4916948;29;20511;-69
2024/01/07 06:22:30;;;;;;;4.47;3.50;;;;;;;;;;4916750;29;20232;-69
2024/01/07 06:24:55;;;;;;;4.95;3.78;;;;;;;;;;4917056;29;20032;-68
2024/01/07 06:27:21;;;;;;;5.75;3.80;;;;;;;;;;4917035;29;20485;-69
2024/01/07 06:29:46;;;;;;;4.47;3.65;;;;;;;;;;4916771;29;20493;-69
2024/01/07 06:32:13;;;;;;;3.95;3.35;;;;;;;;;;4916975;29;20028;-69
2024/01/07 06:34:39;;;;;;;3.63;3.33;;;;;;;;;;4916713;29;20088;-69
2024/01/07 06:37:05;;;;;;;4.20;3.70;;;;;;;;;;4916930;29;20112;-68
2024/01/07 06:39:31;;;;;;;4.20;3.50;;;;;;;;;;4916617;29;20031;-69
2024/01/07 06:41:57;;;;;;;4.00;3.42;;;;;;;;;;4916697;29;20087;-69
2024/01/07 06:44:23;;;;;;;5.15;3.67;;;;;;;;;;4916503;29;20036;-68
2024/01/07 06:46:48;;;;;;;4.30;3.55;;;;;;;;;;4916464;29;20087;-68
2024/01/07 06:49:14;;;;;;;4.03;3.63;;;;;;;;;;4916494;29;20020;-68
2024/01/07 06:51:39;;;;;;;3.97;3.13;;;;;;;;;;4916536;29;20047;-70
2024/01/07 06:54:05;;;;;;;4.35;3.60;;;;;;;;;;4916479;29;20127;-68
2024/01/07 06:56:31;;;;;;;5.00;3.63;;;;;;;;;;4916419;29;20032;-69
2024/01/07 06:58:56;;;;;;;3.83;3.42;;;;;;;;;;4916719;29;20074;-69
2024/01/07 07:01:25;;;;;;;4.20;3.50;;;;;;;;;;4916624;29;20059;-69
2024/01/07 07:03:51;;;;;;;4.07;3.67;;;;;;;;;;4916077;29;20107;-69
2024/01/07 07:06:17;;;;;;;3.70;3.35;;;;;;;;;;4916211;29;20569;-70
2024/01/07 07:08:42;;;;;;;4.65;4.00;;;;;;;;;;4916266;29;20040;-69
2024/01/07 07:11:08;;;;;;;4.18;3.53;;;;;;;;;;4916478;29;20035;-70
2024/01/07 07:13:34;;;;;;;4.47;3.30;;;;;;;;;;4916327;29;20544;-69
2024/01/07 07:16:00;;;;;;;3.90;3.50;;;;;;;;;;4916282;29;20032;-70
2024/01/07 07:18:26;;;;;;;3.47;3.17;;;;;;;;;;4916186;29;20059;-69
2024/01/07 07:20:52;;;;;;;4.13;3.40;;;;;;;;;;4916419;29;20112;-69
2024/01/07 07:23:18;;;;;;;4.40;3.55;;;;;;;;;;4916004;29;20164;-69
2024/01/07 07:25:43;;;;;;;4.38;3.53;;;;;;;;;;4916086;29;20492;-69
2024/01/07 07:28:09;;;;;;;4.63;3.50;;;;;;;;;;4916224;29;20028;-71
2024/01/07 07:30:34;;;;;;;4.05;3.47;;;;;;;;;;4916102;29;20046;-69
2024/01/07 07:33:00;;;;;;;4.10;3.25;;;;;;;;;;4899179;29;20401;-68
2024/01/07 07:35:26;;;;;;;3.85;3.30;;;;;;;;;;4916324;29;20043;-68
2024/01/07 07:37:51;;;;;;;3.92;3.45;;;;;;;;;;4916048;29;20454;-68
2024/01/07 07:40:17;;;;;;;4.13;3.50;;;;;;;;;;4916097;29;20024;-68
2024/01/07 07:42:43;;;;;;;4.38;3.72;;;;;;;;;;4899313;29;20032;-68
2024/01/07 07:45:09;;;;;;;3.40;3.10;;;;;;;;;;4915934;29;20111;-68
2024/01/07 07:47:34;;;;;;;3.95;3.30;;;;;;;;;;4915907;29;20115;-68
2024/01/07 07:50:01;;;;;;;3.72;3.20;;;;;;;;;;4916145;29;20032;-67
2024/01/07 07:52:27;;;;;;;3.78;3.38;;;;;;;;;;4916225;29;20422;-68
2024/01/07 07:54:54;;;;;;;3.67;3.15;;;;;;;;;;4915810;29;20024;-68
2024/01/07 07:57:25;;;;;;;3.97;3.20;;;;;;;;;;4915829;29;20565;-68
2024/01/07 07:59:50;;;;;;;3.55;3.25;;;;;;;;;;4916136;29;20044;-68
2024/01/07 08:02:16;;;;;;;4.45;3.20;;;;;;;;;;4915886;29;20548;-68
2024/01/07 08:04:42;;;;;;;4.13;3.70;;;;;;;;;;4915977;29;20032;-68
2024/01/07 08:07:09;;;;;;;5.40;3.33;;;;;;;;;;4916005;29;20039;-68
2024/01/07 08:09:37;;;;;;;3.78;3.35;;;;;;;;;;4915681;29;20032;-69
2024/01/07 08:12:04;;;;;;;3.88;3.40;;;;;;;;;;4915763;29;20052;-68
2024/01/07 08:14:31;;;;;;;3.80;3.40;;;;;;;;;;4915712;29;20572;-68
2024/01/07 08:16:56;;;;;;;3.42;3.13;;;;;;;;;;4917446;29;20118;-68
2024/01/07 08:19:22;;;;;;;4.25;3.50;;;;;;;;;;4919470;29;20160;-69
2024/01/07 08:21:47;;;;;;;3.83;3.40;;;;;;;;;;4918845;29;20192;-69
2024/01/07 08:24:13;;;;;;;4.03;3.47;;;;;;;;;;4919128;29;20035;-69
2024/01/07 08:26:39;;;;;;;3.80;3.47;;;;;;;;;;4919129;29;20036;-69
2024/01/07 08:29:04;;;;;;;3.30;3.00;;;;;;;;;;4918818;29;20032;-69
2024/01/07 08:31:31;;;;;;;3.83;3.25;;;;;;;;;;4918942;29;20103;-69
2024/01/07 08:33:56;;;;;;;4.05;3.38;;;;;;;;;;4918764;29;20024;-68
2024/01/07 08:36:23;;;;;;;4.60;3.40;;;;;;;;;;4918692;29;20126;-69
2024/01/07 08:38:48;;;;;;;3.65;3.28;;;;;;;;;;4918683;29;20489;-69
2024/01/07 08:41:17;;;;;;;3.70;3.13;;;;;;;;;;4918955;29;20024;-69
2024/01/07 08:43:44;;;;;;;3.38;3.08;;;;;;;;;;4918910;29;20020;-69
2024/01/07 08:46:10;;;;;;;4.43;3.17;;;;;;;;;;4918510;29;20080;-69
2024/01/07 08:48:36;;;;;;;3.90;3.20;;;;;;;;;;4918550;29;20028;-69
2024/01/07 08:51:03;;;;;;;4.47;3.22;;;;;;;;;;4918816;29;20036;-70
2024/01/07 08:53:28;;;;;;;3.40;3.10;;;;;;;;;;4918499;29;20083;-69
2024/01/07 08:55:54;;;;;;;3.80;3.25;;;;;;;;;;4918424;29;20028;-69
2024/01/07 08:58:20;;;;;;;3.42;3.13;;;;;;;;;;4918495;29;20056;-69
2024/01/07 09:00:45;;;;;;;3.25;2.95;;;;;;;;;;4918393;29;20020;-70
2024/01/07 09:03:11;;;;;;;3.55;3.22;;;;;;;;;;4918655;29;20478;-70
2024/01/07 09:05:37;;;;;;;3.40;3.10;;;;;;;;;;4918188;29;20031;-69
2024/01/07 09:08:03;;;;;;;3.50;3.20;;;;;;;;;;4918259;29;20035;-69
2024/01/07 09:10:28;;;;;;;4.80;3.30;;;;;;;;;;4918162;29;20036;-69
2024/01/07 09:12:54;;;;;;;3.47;3.17;;;;;;;;;;4918147;29;20028;-70
2024/01/07 09:15:20;;;;;;;3.83;3.10;;;;;;;;;;4918125;29;20028;-69
2024/01/07 09:17:47;;;;;;;4.28;3.20;;;;;;;;;;4918043;29;20036;-69
2024/01/07 09:20:13;;;;;;;3.40;3.10;;;;;;;;;;4918291;29;20059;-69
2024/01/07 09:22:39;;;;;;;3.58;3.25;;;;;;;;;;4917714;29;20052;-69
2024/01/07 09:25:06;;;;;;;3.33;2.97;;;;;;;;;;4918240;29;20032;-69
2024/01/07 09:27:33;;;;;;;3.55;3.03;;;;;;;;;;4917771;29;20063;-69
2024/01/07 09:29:59;;;;;;;3.45;3.05;;;;;;;;;;4918166;29;20056;-69
2024/01/07 09:32:24;;;;;;;3.40;3.10;;;;;;;;;;4917872;29;20440;-69
2024/01/07 09:34:50;;;;;;;3.30;3.00;;;;;;;;;;4917768;29;20028;-69
2024/01/07 09:37:17;;;;;;;3.78;3.22;;;;;;;;;;4917981;29;20032;-69
2024/01/07 09:39:44;;;;;;;3.80;3.00;;;;;;;;;;4917626;29;20016;-70
2024/01/07 09:42:16;;;;;;;3.97;3.10;;;;;;;;;;4917554;29;20508;-69
2024/01/07 09:44:42;;;;;;;3.17;2.88;;;;;;;;;;4917662;29;20036;-69
2024/01/07 09:47:12;;;;;;;3.47;3.00;;;;;;;;;;4917695;29;20036;-69
2024/01/07 09:49:38;;;;;;;;;;;;;;;;;;4918247;29;20032;-69
2024/01/07 09:52:05;;;;;;;3.05;2.78;;;;;;;;;;4917499;29;19933;-69
2024/01/07 09:54:32;;;;;;;3.00;2.63;;;;;;;;;;4917481;29;20024;-69
2024/01/07 09:57:02;;;;;;;3.25;2.78;;;;;;;;;;4917455;29;20115;-69
2024/01/07 09:59:31;;;;;;;3.22;2.92;;;;;;;;;;4917314;29;20024;-69
2024/01/07 10:01:57;;;;;;;3.20;2.90;;;;;;;;;;4917197;29;20032;-69
2024/01/07 10:04:24;;;;;;;3.58;2.85;;;;;;;;;;4917144;29;20548;-69
2024/01/07 10:06:50;;;;;;;3.53;3.10;;;;;;;;;;4917287;29;20512;-70
2024/01/07 10:09:17;;;;;;;3.25;2.88;;;;;;;;;;4917211;29;20032;-69
2024/01/07 10:11:44;;;;;;;3.47;3.00;;;;;;;;;;4917121;29;20131;-69
2024/01/07 10:14:10;;;;;;;3.85;3.30;;;;;;;;;;4917096;29;20540;-69
2024/01/07 10:16:36;;;;;;;3.40;3.10;;;;;;;;;;4917020;29;20120;-70
2024/01/07 10:19:01;;;;;;;3.22;2.72;;;;;;;;;;4917221;29;20039;-70
2024/01/07 10:21:27;;;;;;;3.38;3.08;;;;;;;;;;4916731;29;20127;-69
2024/01/07 10:24:12;;;;;;;3.13;2.83;;;;;;;;;;4917243;29;20087;-70
2024/01/07 10:26:39;;;;;;;2.78;2.53;;;;;;;;;;4916669;29;20032;-69
2024/01/07 10:29:05;;;;;;;3.00;2.70;;;;;;;;;;4916649;29;20036;-68
2024/01/07 10:31:35;;;;;;;3.50;2.90;;;;;;;;;;4916663;29;20031;-68
2024/01/07 10:34:00;;;;;;;3.10;2.57;;;;;;;;;;4916561;29;20028;-69
2024/01/07 10:36:26;;;;;;;3.28;2.92;;;;;;;;;;4916536;29;20101;-68
2024/01/07 10:38:52;;;;;;;3.17;2.88;;;;;;;;;;4916048;29;20024;-68
2024/01/07 10:41:19;;;;;;;3.47;3.05;;;;;;;;;;4916382;29;20032;-70
2024/01/07 10:43:47;;;;;;;3.15;2.85;;;;;;;;;;4916456;29;20036;-71
2024/01/07 10:46:14;;;;;;;3.20;2.90;;;;;;;;;;4899667;29;20038;-69
2024/01/07 10:48:54;;;;;;;3.30;2.85;;;;;;;;;;4916613;29;20077;-70
2024/01/07 10:51:20;;;;;;;3.97;3.13;;;;;;;;;;4916434;29;20628;-69
2024/01/07 10:53:53;;;;;;;3.40;2.88;;;;;;;;;;4916359;29;20036;-69
2024/01/07 10:56:23;;;;;;;3.47;3.17;;;;;;;;;;4916690;29;20103;-69
2024/01/07 10:58:52;;;;;;;3.25;2.88;;;;;;;;;;4916704;29;20444;-69
2024/01/07 11:01:19;;;;;;;3.00;2.70;;;;;;;;;;4916586;29;20028;-69
2024/01/07 11:04:03;;;;;;;3.08;2.78;;;;;;;;;;4916201;29;20024;-70
2024/01/07 11:06:38;;;;;;;2.65;2.45;;;;;;;;;;4916109;29;20052;-70
2024/01/07 11:09:19;;;;;;;2.80;2.60;;;;;;;;;;4899290;29;20558;-70
2024/01/07 11:11:45;;;;;;;2.92;2.67;;;;;;;;;;4915639;29;20115;-70
2024/01/07 11:14:39;;;;;;;3.20;2.90;;;;;;;;;;4916303;29;20541;-69
2024/01/07 11:17:09;;;;;;;2.95;2.63;;;;;;;;;;4916239;29;20032;-69
2024/01/07 11:19:38;;;;;;;3.67;2.72;;;;;;;;;;4916334;29;20082;-69
2024/01/07 11:22:29;;;;;;;3.17;2.80;;;;;;;;;;4915920;29;20123;-69
2024/01/07 11:24:59;;;;;;;3.17;2.60;;;;;;;;;;4916051;29;20039;-68
2024/01/07 11:27:32;;;;;;;2.88;2.58;;;;;;;;;;4916114;29;20054;-69
2024/01/07 11:30:06;;;;;;;3.20;2.90;;;;;;;;;;4916203;29;20036;-69
2024/01/07 11:32:34;;;;;;;3.08;2.60;;;;;;;;;;4916190;29;20032;-68
2024/01/07 11:35:02;;;;;;;2.97;2.78;;;;;;;;;;4916305;29;20385;-69
2024/01/07 11:37:28;;;;;;;3.28;2.50;;;;;;;;;;4916035;29;20028;-68
2024/01/07 11:39:57;;;;;;;3.08;2.78;;;;;;;;;;4914493;29;20160;-71
2024/01/07 11:42:23;;;;;;;3.08;2.78;;;;;;;;;;4910479;29;20032;-69
2024/01/07 11:44:52;;;;;;;3.38;3.00;;;;;;;;;;4913485;29;20039;-70
2024/01/07 11:47:18;;;;;;;2.90;2.60;;;;;;;;;;4913819;29;20032;-69
2024/01/07 11:49:45;;;;;;;2.60;2.40;;;;;;;;;;4913795;29;20136;-69
2024/01/07 11:52:11;;;;;;;3.35;2.90;;;;;;;;;;4915277;29;20023;-69
2024/01/07 11:54:40;;;;;;;3.08;2.70;;;;;;;;;;4918567;29;20036;-69
2024/01/07 11:57:06;;;;;;;2.70;2.50;;;;;;;;;;4916045;29;20035;-70
2024/01/07 11:59:34;;;;;;;2.92;2.63;;;;;;;;;;4917138;29;20031;-71
2024/01/07 12:02:00;;;;;;;3.15;2.63;;;;;;;;;;4913910;29;20131;-70
2024/01/07 12:04:26;;;;;;;2.90;2.70;;;;;;;;;;4917249;29;20024;-71
2024/01/07 12:06:52;;;;;;;2.92;2.70;;;;;;;;;;4917749;29;20031;-69
2024/01/07 12:09:18;;;;;;;3.00;2.70;;;;;;;;;;4917155;29;20084;-69
2024/01/07 12:11:44;;;;;;;2.83;2.60;;;;;;;;;;4917849;29;20024;-69
2024/01/07 12:14:11;;;;;;;2.78;2.58;;;;;;;;;;4916589;29;20040;-68
2024/01/07 12:16:37;;;;;;;2.65;2.40;;;;;;;;;;4917344;29;20103;-69
2024/01/07 12:19:03;;;;;;;2.95;2.65;;;;;;;;;;4899249;29;20107;-70
2024/01/07 12:21:29;;;;;;;3.15;2.83;;;;;;;;;;4917381;29;20540;-68
2024/01/07 12:23:56;;;;;;;3.03;2.75;;;;;;;;;;4915129;29;20110;-68
2024/01/07 12:26:26;;;;;;;2.53;2.25;;;;;;;;;;4917339;29;20028;-69
2024/01/07 12:28:54;;;;;;;3.60;2.45;;;;;;;;;;4918093;29;20020;-69
2024/01/07 12:31:20;;;;;;;2.88;2.63;;;;;;;;;;4917066;29;20039;-69
2024/01/07 12:33:46;;;;;;;2.75;2.55;;;;;;;;;;4918948;29;20021;-69
2024/01/07 12:36:12;;;;;;;2.75;2.55;;;;;;;;;;4914892;29;20028;-71
2024/01/07 12:38:38;;;;;;;3.05;2.70;;;;;;;;;;4914991;29;20485;-69
2024/01/07 12:41:05;;;;;;;2.95;2.67;;;;;;;;;;4913618;29;20024;-69
2024/01/07 12:43:31;;;;;;;2.90;2.45;;;;;;;;;;4916992;29;20492;-67
2024/01/07 12:45:57;;;;;;;2.50;2.30;;;;;;;;;;4916859;29;20047;-68
2024/01/07 12:48:23;;;;;;;3.05;2.63;;;;;;;;;;4916454;29;20032;-72
2024/01/07 12:50:49;;;;;;;3.08;2.65;;;;;;;;;;4915243;29;20051;-67
2024/01/07 12:53:16;;;;;;;7.80;2.70;;;;;;;;;;4915353;29;20032;-71
2024/01/07 12:55:42;;;;;;;6.03;3.08;;;;;;;;;;4914825;29;20032;-75
2024/01/07 12:58:08;;;;;;;3.15;2.72;;;;;;;;;;4917779;29;20038;-72
2024/01/07 13:00:38;;;;;;;6.32;3.10;;;;;;;;;;4918422;29;20028;-68
2024/01/07 13:03:04;;;;;;;5.40;2.90;;;;;;;;;;4918064;29;20032;-68
2024/01/07 13:05:30;;;;;;;4.50;2.97;;;;;;;;;;4918485;29;20486;-68
2024/01/07 13:07:56;;;;;;;3.58;2.88;;;;;;;;;;4918208;29;20068;-67
2024/01/07 13:10:21;;;;;;;9.00;3.28;;;;;;;;;;4916699;29;20115;-70
2024/01/07 13:12:47;;;;;;;6.35;3.17;;;;;;;;;;4914658;29;20099;-69
2024/01/07 13:15:12;;;;;;;3.55;3.13;;;;;;;;;;4917846;29;20028;-70
2024/01/07 13:17:38;;;;;;;5.97;3.13;;;;;;;;;;4918119;29;20247;-68
2024/01/07 13:20:06;;;;;;;4.80;3.00;;;;;;;;;;4917953;29;20036;-69
2024/01/07 13:22:32;;;;;;;4.85;3.08;;;;;;;;;;4917530;29;20052;-68
2024/01/07 13:24:58;;;;;;;8.23;3.00;;;;;;;;;;4917931;29;20644;-69
2024/01/07 13:27:24;;;;;;;3.47;2.92;;;;;;;;;;4917794;29;20032;-69
2024/01/07 13:29:50;;;;;;;4.65;3.38;;;;;;;;;;4917899;29;20024;-68
2024/01/07 13:32:18;;;;;;;4.45;2.60;;;;;;;;;;4917795;29;20028;-68
2024/01/07 13:34:44;;;;;;;6.10;2.85;;;;;;;;;;4917712;29;20029;-68
2024/01/07 13:37:10;;;;;;;4.82;2.97;;;;;;;;;;4917701;29;20032;-69
2024/01/07 13:39:36;;;;;;;4.88;3.47;;;;;;;;;;4917682;29;20032;-69
2024/01/07 13:42:02;;;;;;;5.75;3.08;;;;;;;;;;4899327;29;20067;-68
2024/01/07 13:44:28;;;;;;;5.90;3.67;;;;;;;;;;4917865;29;20159;-69
2024/01/07 13:46:53;;;;;;;6.15;2.80;;;;;;;;;;4906140;29;20537;-68
2024/01/07 13:49:19;;;;;;;8.88;3.10;;;;;;;;;;4898712;29;20046;-69
2024/01/07 13:51:45;;;;;;;4.55;2.90;;;;;;;;;;4898858;29;20381;-69
2024/01/07 13:54:14;;;;;;;4.07;2.80;;;;;;;;;;4899421;29;20500;-67
2024/01/07 13:56:44;;;;;;;4.18;2.70;;;;;;;;;;4898377;29;20036;-68
2024/01/07 13:59:10;;;;;;;3.90;2.50;;;;;;;;;;4898400;29;20180;-68
2024/01/07 14:01:36;;;;;;;4.63;3.25;;;;;;;;;;4898294;29;20112;-68
2024/01/07 14:04:02;;;;;;;4.90;2.72;;;;;;;;;;4914740;29;20103;-68
2024/01/07 14:06:28;;;;;;;5.38;2.22;;;;;;;;;;4917372;29;20172;-68
2024/01/07 14:08:53;;;;;;;4.65;2.55;;;;;;;;;;4917126;29;20028;-71
2024/01/07 14:11:20;;;;;;;3.20;2.55;;;;;;;;;;4917098;29;20087;-71
2024/01/07 14:13:46;;;;;;;9.80;2.88;;;;;;;;;;4916376;29;20517;-73
2024/01/07 14:16:12;;;;;;;3.28;2.25;;;;;;;;;;4916782;29;20040;-73
2024/01/07 14:18:39;;;;;;;3.38;2.45;;;;;;;;;;4916647;29;20032;-73
2024/01/07 14:21:05;;;;;;;3.17;2.60;;;;;;;;;;4916323;29;20032;-72
2024/01/07 14:23:32;;;;;;;3.78;2.50;;;;;;;;;;4916516;29;20084;-72
2024/01/07 14:25:57;;;;;;;4.22;2.80;;;;;;;;;;4916401;29;20025;-72
2024/01/07 14:28:23;;;;;;;3.70;2.53;;;;;;;;;;4916503;29;20028;-72
2024/01/07 14:30:49;;;;;;;4.32;2.28;;;;;;;;;;4916835;29;20032;-73
2024/01/07 14:33:14;;;;;;;5.00;2.17;;;;;;;;;;4916868;29;20024;-72
2024/01/07 14:35:40;;;;;;;3.17;2.22;;;;;;;;;;4916788;29;20028;-72
2024/01/07 14:38:06;;;;;;;3.55;2.20;;;;;;;;;;4916635;29;20039;-72